Time;durP1;ratioP1;P1;durP2;ratioP2;P2;SDS_P1;SDS_P2;PMS_P1;PMS_P2;Temp;Humidity;BMP_temperature;BMP_pressure;BME280_temperature;BME280_humidity;BME280_pressure;Samples;Min_cycle;Max_cycle;Signal;HPM_P1;HPM_P2
2024/01/15 00:01:53;;;;;;;5.10;3.40;;;;;;;-0.38;100.00;98712.98;104492;1262;66763;-54
2024/01/15 00:04:21;;;;;;;4.50;3.20;;;;;;;-0.40;100.00;98717.06;104440;1262;73098;-54
2024/01/15 00:06:49;;;;;;;4.40;2.80;;;;;;;-0.42;100.00;98718.36;104542;1260;61883;-55
2024/01/15 00:09:16;;;;;;;3.70;2.80;;;;;;;-0.45;100.00;98717.00;104991;1263;60987;-54
2024/01/15 00:11:44;;;;;;;2.80;2.10;;;;;;;-0.46;100.00;98721.27;104762;1262;73113;-55
2024/01/15 00:14:14;;;;;;;3.20;2.30;;;;;;;-0.47;100.00;98727.96;105064;1262;65950;-54
2024/01/15 00:16:41;;;;;;;3.70;2.00;;;;;;;-0.45;100.00;98731.47;104801;1260;72678;-55
2024/01/15 00:19:09;;;;;;;3.60;2.80;;;;;;;-0.44;100.00;98730.39;104874;1262;59672;-54
2024/01/15 00:21:36;;;;;;;5.00;2.30;;;;;;;-0.43;100.00;98733.54;104757;1262;60117;-54
2024/01/15 00:24:04;;;;;;;4.00;2.60;;;;;;;-0.42;100.00;98733.33;106019;1259;72505;-54
2024/01/15 00:26:31;;;;;;;4.10;2.70;;;;;;;-0.42;100.00;98730.87;104520;1257;65784;-54
2024/01/15 00:28:58;;;;;;;3.80;2.60;;;;;;;-0.43;100.00;98729.84;104504;1260;71632;-51
2024/01/15 00:31:26;;;;;;;3.40;2.70;;;;;;;-0.45;100.00;98727.59;104704;1260;59746;-54
2024/01/15 00:33:53;;;;;;;3.30;1.80;;;;;;;-0.46;100.00;98728.13;105178;1263;59665;-54
2024/01/15 00:36:21;;;;;;;4.20;2.10;;;;;;;-0.47;100.00;98722.33;104821;1258;71944;-54
2024/01/15 00:38:49;;;;;;;2.50;1.70;;;;;;;-0.47;100.00;98724.98;104753;1257;65892;-54
2024/01/15 00:41:16;;;;;;;3.20;2.20;;;;;;;-0.46;100.00;98722.66;104808;1263;73131;-55
2024/01/15 00:43:44;;;;;;;3.80;2.70;;;;;;;-0.46;100.00;98719.66;104695;1263;60241;-55
2024/01/15 00:46:12;;;;;;;4.00;2.20;;;;;;;-0.45;100.00;98717.73;104697;1257;62780;-53
2024/01/15 00:48:39;;;;;;;4.60;2.70;;;;;;;-0.46;100.00;98716.48;105099;1259;73299;-54
2024/01/15 00:51:07;;;;;;;3.40;2.70;;;;;;;-0.47;100.00;98714.58;105078;1254;68705;-53
2024/01/15 00:53:34;;;;;;;3.30;3.00;;;;;;;-0.50;100.00;98715.86;105032;1257;71458;-53
2024/01/15 00:56:03;;;;;;;5.00;3.30;;;;;;;-0.54;100.00;98716.48;105057;1259;59723;-54
2024/01/15 00:58:30;;;;;;;3.80;3.10;;;;;;;-0.56;100.00;98710.71;104980;1260;60033;-54
2024/01/15 01:00:57;;;;;;;2.40;1.70;;;;;;;-0.58;100.00;98711.45;104943;1254;71841;-54
2024/01/15 01:03:25;;;;;;;3.80;2.40;;;;;;;-0.58;100.00;98708.11;106156;1253;65661;-53
2024/01/15 01:05:52;;;;;;;3.00;2.20;;;;;;;-0.58;100.00;98712.33;106944;1254;72629;-55
2024/01/15 01:08:20;;;;;;;3.30;2.30;;;;;;;-0.57;100.00;98714.77;105035;1257;59765;-54
2024/01/15 01:10:47;;;;;;;3.00;2.40;;;;;;;-0.56;100.00;98709.47;105059;1255;60533;-52
2024/01/15 01:13:14;;;;;;;2.90;2.70;;;;;;;-0.55;100.00;98708.39;104893;1254;71861;-53
2024/01/15 01:15:41;;;;;;;4.50;3.10;;;;;;;-0.54;100.00;98707.67;104993;1254;65595;-52
2024/01/15 01:18:09;;;;;;;5.60;3.10;;;;;;;-0.53;100.00;98707.50;105111;1257;73144;-53
2024/01/15 01:20:36;;;;;;;4.20;2.60;;;;;;;-0.55;100.00;98706.63;104982;1259;59644;-53
2024/01/15 01:23:05;;;;;;;4.60;3.20;;;;;;;-0.57;100.00;98703.15;104944;1259;59558;-54
2024/01/15 01:25:32;;;;;;;4.10;3.50;;;;;;;-0.60;100.00;98703.41;105068;1254;73097;-53
2024/01/15 01:27:59;;;;;;;4.60;2.90;;;;;;;-0.65;100.00;98707.54;104954;1254;66312;-55
2024/01/15 01:30:27;;;;;;;5.20;3.20;;;;;;;-0.69;100.00;98702.15;104903;1260;72795;-53
2024/01/15 01:32:54;;;;;;;4.60;2.30;;;;;;;-0.70;100.00;98706.61;104955;1254;59692;-54
2024/01/15 01:35:22;;;;;;;6.50;2.20;;;;;;;-0.72;100.00;98704.70;104948;1253;60139;-53
2024/01/15 01:37:49;;;;;;;4.30;2.80;;;;;;;-0.73;100.00;98696.78;104926;1259;73782;-54
2024/01/15 01:40:17;;;;;;;3.80;2.20;;;;;;;-0.71;100.00;98700.81;105013;1259;67333;-54
2024/01/15 01:42:45;;;;;;;4.80;2.30;;;;;;;-0.71;100.00;98695.16;105042;1259;71434;-52
2024/01/15 01:45:12;;;;;;;3.70;2.20;;;;;;;-0.69;100.00;98691.97;104745;1254;60153;-55
2024/01/15 01:47:40;;;;;;;2.90;2.00;;;;;;;-0.69;100.00;98691.26;104872;1254;59998;-53
2024/01/15 01:50:07;;;;;;;5.10;2.90;;;;;;;-0.70;100.00;98694.80;105034;1254;73145;-53
2024/01/15 01:52:35;;;;;;;2.80;2.00;;;;;;;-0.73;100.00;98692.37;109075;1254;67170;-54
2024/01/15 01:55:02;;;;;;;2.80;2.20;;;;;;;-0.76;100.00;98694.02;107702;1260;70454;-54
2024/01/15 01:57:30;;;;;;;4.40;2.50;;;;;;;-0.79;100.00;98692.86;105102;1254;59820;-53
2024/01/15 01:59:57;;;;;;;3.20;2.30;;;;;;;-0.82;100.00;98693.96;104949;1259;59718;-54
2024/01/15 02:02:25;;;;;;;2.10;1.70;;;;;;;-0.84;100.00;98698.59;105034;1255;72914;-53
2024/01/15 02:04:52;;;;;;;2.80;1.90;;;;;;;-0.86;100.00;98701.27;104876;1254;67051;-53
2024/01/15 02:07:20;;;;;;;2.40;1.30;;;;;;;-0.86;100.00;98702.50;105027;1254;72934;-53
2024/01/15 02:09:47;;;;;;;2.60;2.00;;;;;;;-0.84;100.00;98697.70;104842;1259;59738;-53
2024/01/15 02:12:14;;;;;;;4.80;2.50;;;;;;;-0.82;100.00;98696.60;105291;1259;60228;-53
2024/01/15 02:14:42;;;;;;;2.90;2.10;;;;;;;-0.80;100.00;98694.98;105575;1259;70838;-54
2024/01/15 02:17:09;;;;;;;2.70;2.30;;;;;;;-0.77;100.00;98697.77;104925;1254;65519;-53
2024/01/15 02:19:36;;;;;;;3.00;2.40;;;;;;;-0.77;100.00;98692.26;104823;1253;74908;-53
2024/01/15 02:22:04;;;;;;;2.80;1.80;;;;;;;-0.78;100.00;98690.20;105100;1253;59705;-54
2024/01/15 02:24:31;;;;;;;5.30;2.80;;;;;;;-0.81;100.00;98696.23;104898;1259;60130;-53
2024/01/15 02:26:59;;;;;;;3.80;2.40;;;;;;;-0.84;100.00;98697.86;105901;1259;73103;-53
2024/01/15 02:29:26;;;;;;;3.50;1.90;;;;;;;-0.85;100.00;98696.67;104965;1259;65770;-53
2024/01/15 02:31:53;;;;;;;4.60;2.60;;;;;;;-0.86;100.00;98693.36;104946;1257;71415;-53
2024/01/15 02:34:20;;;;;;;3.40;1.80;;;;;;;-0.85;100.00;98692.78;104954;1254;61014;-53
2024/01/15 02:36:48;;;;;;;4.20;2.30;;;;;;;-0.83;100.00;98695.20;104803;1260;60260;-53
2024/01/15 02:39:15;;;;;;;2.50;1.70;;;;;;;-0.80;100.00;98697.44;104805;1256;73247;-54
2024/01/15 02:41:43;;;;;;;3.80;2.40;;;;;;;-0.76;100.00;98697.20;104870;1261;64745;-54
2024/01/15 02:44:10;;;;;;;4.10;2.60;;;;;;;-0.73;100.00;98693.44;104955;1256;71134;-54
2024/01/15 02:46:38;;;;;;;4.20;2.30;;;;;;;-0.72;100.00;98695.02;104885;1260;60451;-54
2024/01/15 02:49:05;;;;;;;3.70;2.50;;;;;;;-0.72;100.00;98693.95;104892;1261;60439;-54
2024/01/15 02:51:32;;;;;;;4.60;3.00;;;;;;;-0.74;100.00;98693.80;104724;1256;73943;-52
2024/01/15 02:54:00;;;;;;;3.90;2.80;;;;;;;-0.76;100.00;98694.88;105039;1260;65995;-55
2024/01/15 02:56:27;;;;;;;4.70;2.80;;;;;;;-0.78;100.00;98689.15;104807;1256;72420;-54
2024/01/15 02:58:54;;;;;;;2.90;2.00;;;;;;;-0.81;100.00;98686.36;104769;1261;61051;-54
2024/01/15 03:01:22;;;;;;;2.30;2.10;;;;;;;-0.82;100.00;98679.34;104635;1260;60548;-53
2024/01/15 03:03:49;;;;;;;5.00;2.10;;;;;;;-0.82;100.00;98679.34;105027;1260;73767;-53
2024/01/15 03:06:17;;;;;;;4.90;2.30;;;;;;;-0.81;100.00;98678.98;105093;1256;66321;-54
2024/01/15 03:08:44;;;;;;;3.10;2.20;;;;;;;-0.79;100.00;98677.53;105013;1256;72714;-54
2024/01/15 03:11:11;;;;;;;4.80;2.10;;;;;;;-0.78;100.00;98677.51;104910;1259;60623;-54
2024/01/15 03:13:39;;;;;;;3.90;2.80;;;;;;;-0.76;100.00;98679.39;104977;1260;60300;-53
2024/01/15 03:16:06;;;;;;;4.00;2.50;;;;;;;-0.75;100.00;98681.84;105064;1259;74961;-53
2024/01/15 03:18:33;;;;;;;3.70;2.90;;;;;;;-0.75;100.00;98683.60;104864;1260;67028;-54
2024/01/15 03:21:01;;;;;;;5.30;3.10;;;;;;;-0.77;100.00;98682.05;104786;1255;71321;-54
2024/01/15 03:23:29;;;;;;;4.00;2.40;;;;;;;-0.80;100.00;98684.60;104696;1260;60477;-54
2024/01/15 03:25:56;;;;;;;7.30;3.10;;;;;;;-0.83;100.00;98685.52;104820;1261;60510;-53
2024/01/15 03:28:23;;;;;;;4.70;2.90;;;;;;;-0.85;100.00;98681.88;104681;1261;74035;-55
2024/01/15 03:30:51;;;;;;;4.50;1.60;;;;;;;-0.88;100.00;98687.22;104863;1256;66737;-55
2024/01/15 03:33:18;;;;;;;3.80;2.10;;;;;;;-0.92;100.00;98685.88;105080;1260;72841;-55
2024/01/15 03:35:46;;;;;;;5.30;2.20;;;;;;;-0.94;100.00;98691.02;104878;1259;60441;-54
2024/01/15 03:38:13;;;;;;;6.10;3.20;;;;;;;-0.95;100.00;98696.88;105007;1257;61146;-55
2024/01/15 03:40:40;;;;;;;5.50;2.70;;;;;;;-0.97;100.00;98696.02;104981;1259;74113;-54
2024/01/15 03:43:08;;;;;;;4.90;3.30;;;;;;;-0.98;100.00;98698.15;105742;1257;67115;-55
2024/01/15 03:45:35;;;;;;;4.30;2.80;;;;;;;-1.01;100.00;98693.96;104959;1259;71465;-55
2024/01/15 03:48:03;;;;;;;4.20;3.20;;;;;;;-1.04;100.00;98689.12;104925;1260;60554;-54
2024/01/15 03:50:31;;;;;;;5.40;3.40;;;;;;;-1.08;100.00;98685.13;105403;1253;60529;-55
2024/01/15 03:52:58;;;;;;;5.80;3.10;;;;;;;-1.13;100.00;98686.11;105043;1254;72889;-55
2024/01/15 03:55:25;;;;;;;7.40;3.20;;;;;;;-1.17;100.00;98688.98;104886;1263;65753;-54
2024/01/15 03:57:53;;;;;;;6.80;3.40;;;;;;;-1.20;100.00;98695.05;104958;1260;71306;-55
2024/01/15 04:00:20;;;;;;;5.90;3.70;;;;;;;-1.23;100.00;98698.26;104883;1259;60549;-54
2024/01/15 04:02:47;;;;;;;6.40;3.90;;;;;;;-1.23;100.00;98695.98;104817;1259;60471;-54
2024/01/15 04:05:15;;;;;;;5.70;3.20;;;;;;;-1.25;100.00;98695.84;104912;1254;73936;-55
2024/01/15 04:07:42;;;;;;;8.60;4.20;;;;;;;-1.27;100.00;98692.70;105277;1257;66743;-55
2024/01/15 04:10:10;;;;;;;5.00;3.70;;;;;;;-1.29;100.00;98693.27;104755;1256;71454;-54
2024/01/15 04:12:37;;;;;;;8.60;2.90;;;;;;;-1.31;100.00;98692.60;104750;1264;60559;-55
2024/01/15 04:15:05;;;;;;;4.70;2.90;;;;;;;-1.33;100.00;98695.27;105111;1258;60548;-55
2024/01/15 04:17:33;;;;;;;4.80;2.60;;;;;;;-1.36;100.00;98697.77;105200;1256;74008;-54
2024/01/15 04:20:01;;;;;;;4.40;3.60;;;;;;;-1.36;100.00;98699.58;104982;1253;67547;-54
2024/01/15 04:22:28;;;;;;;7.70;3.10;;;;;;;-1.36;100.00;98703.23;105015;1254;72684;-55
2024/01/15 04:24:55;;;;;;;5.90;3.70;;;;;;;-1.37;100.00;98700.27;104853;1254;60518;-55
2024/01/15 04:27:23;;;;;;;6.20;3.20;;;;;;;-1.37;100.00;98698.19;105050;1255;60410;-55
2024/01/15 04:29:50;;;;;;;6.20;4.20;;;;;;;-1.38;100.00;98701.53;104844;1253;74299;-55
2024/01/15 04:32:18;;;;;;;7.70;4.40;;;;;;;-1.40;100.00;98709.83;104943;1259;66935;-55
2024/01/15 04:34:45;;;;;;;10.00;3.90;;;;;;;-1.41;100.00;98714.05;105042;1259;71775;-55
2024/01/15 04:37:15;;;;;;;5.30;3.50;;;;;;;-1.42;100.00;98714.42;104843;1257;60778;-54
2024/01/15 04:39:43;;;;;;;6.80;3.50;;;;;;;-1.42;100.00;98715.83;104968;1257;60347;-55
2024/01/15 04:42:10;;;;;;;5.90;4.10;;;;;;;-1.40;100.00;98712.30;104988;1254;74316;-55
2024/01/15 04:44:37;;;;;;;5.70;3.80;;;;;;;-1.39;100.00;98711.05;108974;1253;66935;-54
2024/01/15 04:47:05;;;;;;;7.20;4.30;;;;;;;-1.38;100.00;98719.14;104892;1260;71554;-54
2024/01/15 04:49:32;;;;;;;6.10;3.70;;;;;;;-1.40;100.00;98718.45;104986;1256;61097;-54
2024/01/15 04:51:59;;;;;;;6.10;3.80;;;;;;;-1.41;100.00;98719.70;105101;1257;60434;-55
2024/01/15 04:54:27;;;;;;;5.80;3.20;;;;;;;-1.43;100.00;98718.31;105181;1256;73932;-55
2024/01/15 04:56:54;;;;;;;6.30;3.10;;;;;;;-1.43;100.00;98720.08;104929;1259;67688;-55
2024/01/15 04:59:21;;;;;;;8.30;3.70;;;;;;;-1.43;100.00;98715.67;105044;1259;72996;-54
2024/01/15 05:01:49;;;;;;;8.00;3.40;;;;;;;-1.43;100.00;98713.56;104952;1259;61324;-55
2024/01/15 05:04:16;;;;;;;8.20;3.70;;;;;;;-1.41;100.00;98715.64;105289;1254;60384;-55
2024/01/15 05:06:44;;;;;;;6.20;4.40;;;;;;;-1.39;100.00;98718.80;105037;1256;74330;-55
2024/01/15 05:09:13;;;;;;;6.20;3.90;;;;;;;-1.38;100.00;98715.44;104885;1260;66765;-55
2024/01/15 05:11:40;;;;;;;5.30;3.30;;;;;;;-1.38;100.00;98714.02;105064;1256;75239;-54
2024/01/15 05:14:07;;;;;;;6.70;4.40;;;;;;;-1.38;100.00;98712.27;105054;1256;60355;-54
2024/01/15 05:16:35;;;;;;;7.00;3.60;;;;;;;-1.40;100.00;98712.83;104928;1257;60441;-55
2024/01/15 05:19:02;;;;;;;7.90;4.00;;;;;;;-1.42;100.00;98710.73;105118;1260;72790;-55
2024/01/15 05:21:30;;;;;;;6.70;3.70;;;;;;;-1.46;100.00;98709.05;104990;1259;66965;-54
2024/01/15 05:23:57;;;;;;;6.80;3.70;;;;;;;-1.48;100.00;98706.81;104873;1254;72481;-54
2024/01/15 05:26:25;;;;;;;7.60;2.20;;;;;;;-1.50;100.00;98704.19;105006;1259;61855;-55
2024/01/15 05:28:52;;;;;;;4.60;2.70;;;;;;;-1.52;100.00;98703.51;105113;1258;60549;-55
2024/01/15 05:31:19;;;;;;;8.70;4.10;;;;;;;-1.52;100.00;98702.27;105156;1257;71999;-54
2024/01/15 05:33:47;;;;;;;6.00;2.80;;;;;;;-1.50;100.00;98703.13;104785;1255;66079;-55
2024/01/15 05:36:14;;;;;;;3.20;2.00;;;;;;;-1.49;100.00;98706.83;104981;1255;71372;-55
2024/01/15 05:38:41;;;;;;;7.30;3.70;;;;;;;-1.49;100.00;98712.61;104818;1260;60675;-55
2024/01/15 05:41:09;;;;;;;4.50;2.30;;;;;;;-1.49;100.00;98715.08;104836;1260;60575;-54
2024/01/15 05:43:36;;;;;;;5.40;3.10;;;;;;;-1.49;100.00;98721.23;104902;1254;72650;-54
2024/01/15 05:46:03;;;;;;;4.70;2.70;;;;;;;-1.50;100.00;98716.15;104917;1253;65775;-55
2024/01/15 05:48:31;;;;;;;4.90;2.40;;;;;;;-1.49;100.00;98715.09;104911;1258;72475;-54
2024/01/15 05:50:59;;;;;;;8.10;2.30;;;;;;;-1.48;100.00;98714.73;105578;1256;60945;-55
2024/01/15 05:53:26;;;;;;;4.50;2.50;;;;;;;-1.46;100.00;98711.36;105075;1267;60434;-55
2024/01/15 05:55:55;;;;;;;5.30;2.50;;;;;;;-1.45;100.00;98712.20;105115;1254;72722;-55
2024/01/15 05:58:23;;;;;;;3.00;2.10;;;;;;;-1.42;100.00;98715.66;104949;1259;64725;-54
2024/01/15 06:00:51;;;;;;;4.20;2.60;;;;;;;-1.41;100.00;98720.23;104990;1260;71094;-55
2024/01/15 06:03:18;;;;;;;4.90;2.80;;;;;;;-1.40;100.00;98718.81;105425;1257;60440;-54
2024/01/15 06:05:46;;;;;;;4.70;3.00;;;;;;;-1.41;100.00;98722.69;105184;1256;62193;-54
2024/01/15 06:08:14;;;;;;;4.90;1.70;;;;;;;-1.41;100.00;98725.69;105007;1257;71580;-54
2024/01/15 06:10:41;;;;;;;6.20;2.70;;;;;;;-1.42;100.00;98723.93;105180;1254;65197;-54
2024/01/15 06:13:09;;;;;;;3.90;2.10;;;;;;;-1.41;100.00;98724.63;105245;1260;70463;-55
2024/01/15 06:15:36;;;;;;;3.60;2.30;;;;;;;-1.40;100.00;98725.48;105085;1254;60683;-54
2024/01/15 06:18:04;;;;;;;6.10;3.00;;;;;;;-1.38;100.00;98725.11;105384;1254;60424;-54
2024/01/15 06:20:32;;;;;;;6.10;3.70;;;;;;;-1.37;100.00;98722.80;105427;1257;72626;-54
2024/01/15 06:22:59;;;;;;;5.30;3.40;;;;;;;-1.35;100.00;98722.75;105052;1260;67488;-55
2024/01/15 06:25:27;;;;;;;6.10;3.20;;;;;;;-1.35;100.00;98725.05;105084;1257;71636;-55
2024/01/15 06:27:54;;;;;;;5.80;2.80;;;;;;;-1.36;100.00;98729.28;105054;1254;60497;-55
2024/01/15 06:30:22;;;;;;;4.70;2.00;;;;;;;-1.36;100.00;98732.78;106577;1257;60391;-55
2024/01/15 06:32:50;;;;;;;5.50;2.80;;;;;;;-1.35;100.00;98734.01;105263;1260;72509;-54
2024/01/15 06:35:18;;;;;;;4.10;2.30;;;;;;;-1.33;100.00;98736.98;105625;1256;66662;-55
2024/01/15 06:37:49;;;;;;;4.50;2.40;;;;;;;-1.29;100.00;98739.23;105486;1254;72715;-54
2024/01/15 06:40:16;;;;;;;6.00;2.80;;;;;;;-1.26;100.00;98739.50;105089;1259;60500;-54
2024/01/15 06:42:44;;;;;;;7.80;3.50;;;;;;;-1.24;100.00;98738.59;104756;1260;61760;-55
2024/01/15 06:45:11;;;;;;;6.50;3.60;;;;;;;-1.23;100.00;98741.04;105347;1260;74445;-55
2024/01/15 06:47:39;;;;;;;6.00;3.20;;;;;;;-1.23;100.00;98740.86;105852;1258;66782;-53
2024/01/15 06:50:09;;;;;;;5.60;3.00;;;;;;;-1.22;100.00;98737.15;105019;1255;71455;-55
2024/01/15 06:52:36;;;;;;;5.80;3.20;;;;;;;-1.22;100.00;98739.08;105085;1257;60521;-54
2024/01/15 06:55:05;;;;;;;5.00;2.40;;;;;;;-1.21;100.00;98738.36;105205;1257;60460;-55
2024/01/15 06:57:33;;;;;;;4.90;2.70;;;;;;;-1.20;100.00;98735.17;105501;1253;73674;-54
2024/01/15 07:00:00;;;;;;;6.40;3.60;;;;;;;-1.18;100.00;98734.79;105028;1255;66827;-54
2024/01/15 07:02:28;;;;;;;4.90;2.70;;;;;;;-1.17;100.00;98727.72;107735;1259;72906;-53
2024/01/15 07:04:55;;;;;;;8.80;3.90;;;;;;;-1.16;100.00;98721.36;104834;1254;60627;-55
2024/01/15 07:07:23;;;;;;;4.80;2.80;;;;;;;-1.18;100.00;98720.69;104956;1254;60370;-54
2024/01/15 07:09:52;;;;;;;5.00;3.20;;;;;;;-1.19;100.00;98723.00;105071;1258;74543;-54
2024/01/15 07:12:20;;;;;;;6.40;3.80;;;;;;;-1.19;100.00;98718.79;106031;1254;65371;-52
2024/01/15 07:14:47;;;;;;;8.00;3.60;;;;;;;-1.19;100.00;98718.06;105031;1254;72524;-54
2024/01/15 07:17:15;;;;;;;5.80;3.70;;;;;;;-1.16;100.00;98712.55;105101;1254;60414;-54
2024/01/15 07:19:42;;;;;;;4.50;2.80;;;;;;;-1.13;100.00;98710.77;105075;1258;60415;-54
2024/01/15 07:22:10;;;;;;;7.40;4.20;;;;;;;-1.10;100.00;98710.00;104838;1257;72622;-54
2024/01/15 07:24:37;;;;;;;7.20;4.10;;;;;;;-1.08;100.00;98706.08;104935;1254;68369;-55
2024/01/15 07:27:05;;;;;;;6.50;4.20;;;;;;;-1.06;100.00;98706.23;104903;1253;72718;-54
2024/01/15 07:29:37;;;;;;;6.70;3.40;;;;;;;-1.05;100.00;98699.70;105166;1254;60603;-53
2024/01/15 07:32:05;;;;;;;5.40;3.00;;;;;;;-1.02;100.00;98702.63;104941;1254;60550;-53
2024/01/15 07:34:32;;;;;;;5.70;2.50;;;;;;;-0.99;100.00;98695.35;109151;1254;72762;-54
2024/01/15 07:37:00;;;;;;;7.50;3.50;;;;;;;-0.94;100.00;98695.09;109239;1254;66880;-54
2024/01/15 07:39:28;;;;;;;5.20;3.30;;;;;;;-0.90;100.00;98696.23;109044;1254;72821;-55
2024/01/15 07:41:56;;;;;;;4.10;2.60;;;;;;;-0.83;100.00;98701.73;109234;1254;61970;-55
2024/01/15 07:44:23;;;;;;;7.30;3.00;;;;;;;-0.76;100.00;98695.27;109111;1252;59124;-55
2024/01/15 07:46:50;;;;;;;5.20;2.20;;;;;;;-0.71;100.00;98692.88;109015;1254;73878;-56
2024/01/15 07:49:18;;;;;;;8.30;3.40;;;;;;;-0.67;100.00;98694.88;106513;1254;66001;-54
2024/01/15 07:51:46;;;;;;;4.60;2.60;;;;;;;-0.63;100.00;98693.25;104991;1258;71451;-55
2024/01/15 07:54:13;;;;;;;6.30;2.20;;;;;;;-0.60;100.00;98693.52;105008;1254;61186;-54
2024/01/15 07:56:57;;;;;;;2.30;1.80;;;;;;;-0.55;100.00;98688.33;105984;1259;60434;-55
2024/01/15 07:59:25;;;;;;;4.30;2.20;;;;;;;-0.53;100.00;98696.73;105401;1254;73114;-55
2024/01/15 08:01:52;;;;;;;2.20;1.80;;;;;;;-0.51;100.00;98698.46;109123;1254;65979;-55
2024/01/15 08:04:20;;;;;;;3.80;2.00;;;;;;;-0.50;100.00;98707.57;107435;1254;71446;-53
2024/01/15 08:06:47;;;;;;;5.10;2.90;;;;;;;-0.48;100.00;98705.95;106368;1254;60395;-53
2024/01/15 08:09:15;;;;;;;5.30;2.70;;;;;;;-0.46;100.00;98703.98;109162;1253;58833;-55
2024/01/15 08:11:43;;;;;;;6.80;3.10;;;;;;;-0.43;100.00;98697.22;105709;1255;72624;-54
2024/01/15 08:14:10;;;;;;;4.30;3.10;;;;;;;-0.40;100.00;98696.63;105853;1254;65897;-55
2024/01/15 08:16:37;;;;;;;4.70;3.30;;;;;;;-0.37;100.00;98697.27;104891;1259;73183;-54
2024/01/15 08:19:05;;;;;;;4.80;2.70;;;;;;;-0.32;100.00;98703.33;105022;1254;60496;-54
2024/01/15 08:21:33;;;;;;;3.60;2.70;;;;;;;-0.29;100.00;98701.16;105059;1254;61879;-54
2024/01/15 08:24:02;;;;;;;4.60;2.70;;;;;;;-0.27;100.00;98703.93;105044;1257;76277;-55
2024/01/15 08:26:29;;;;;;;6.80;4.10;;;;;;;-0.24;100.00;98698.05;104966;1254;66226;-54
2024/01/15 08:28:56;;;;;;;4.20;3.30;;;;;;;-0.22;100.00;98698.52;105038;1254;71465;-55
2024/01/15 08:31:24;;;;;;;4.90;3.20;;;;;;;-0.20;100.00;98707.31;104779;1254;60505;-55
2024/01/15 08:33:52;;;;;;;5.90;3.20;;;;;;;-0.20;100.00;98704.50;104929;1257;60609;-54
2024/01/15 08:36:19;;;;;;;3.80;2.70;;;;;;;-0.20;100.00;98703.26;105025;1254;73805;-55
2024/01/15 08:38:46;;;;;;;6.00;2.60;;;;;;;-0.20;100.00;98697.97;105101;1255;68192;-54
2024/01/15 08:41:14;;;;;;;2.40;2.20;;;;;;;-0.20;100.00;98697.08;104815;1256;71797;-54
2024/01/15 08:43:41;;;;;;;4.30;1.70;;;;;;;-0.19;100.00;98698.48;104892;1256;60549;-55
2024/01/15 08:46:09;;;;;;;4.60;2.40;;;;;;;-0.18;100.00;98694.41;104984;1254;60367;-54
2024/01/15 08:48:36;;;;;;;3.40;2.00;;;;;;;-0.16;100.00;98690.10;104959;1254;73871;-54
2024/01/15 08:51:04;;;;;;;4.60;1.80;;;;;;;-0.14;100.00;98689.89;105036;1260;65789;-53
2024/01/15 08:53:31;;;;;;;3.80;2.20;;;;;;;-0.12;100.00;98690.39;105194;1254;72634;-54
2024/01/15 08:55:59;;;;;;;5.40;2.50;;;;;;;-0.13;100.00;98693.02;105161;1254;60551;-54
2024/01/15 08:58:27;;;;;;;5.50;1.60;;;;;;;-0.13;100.00;98687.39;104963;1254;60660;-55
2024/01/15 09:00:54;;;;;;;3.30;2.40;;;;;;;-0.12;100.00;98682.97;105324;1257;73831;-55
2024/01/15 09:03:22;;;;;;;3.20;2.60;;;;;;;-0.12;100.00;98681.02;105758;1254;65130;-54
2024/01/15 09:05:49;;;;;;;4.20;2.50;;;;;;;-0.11;100.00;98677.49;105282;1257;71379;-53
2024/01/15 09:08:18;;;;;;;5.10;2.20;;;;;;;-0.10;100.00;98677.65;105350;1254;60479;-53
2024/01/15 09:10:45;;;;;;;3.50;2.10;;;;;;;-0.08;100.00;98674.06;106512;1257;61205;-56
2024/01/15 09:13:13;;;;;;;4.20;2.20;;;;;;;-0.07;100.00;98674.20;106271;1254;72470;-54
2024/01/15 09:15:40;;;;;;;3.40;2.10;;;;;;;-0.04;100.00;98664.45;105114;1254;66288;-54
2024/01/15 09:18:08;;;;;;;3.30;1.90;;;;;;;0.00;100.00;98664.88;105084;1257;73178;-54
2024/01/15 09:20:35;;;;;;;2.70;2.00;;;;;;;0.04;100.00;98659.69;105910;1253;61049;-57
2024/01/15 09:23:03;;;;;;;2.70;2.10;;;;;;;0.06;100.00;98656.46;105053;1259;60543;-54
2024/01/15 09:25:30;;;;;;;4.90;2.70;;;;;;;0.10;100.00;98652.30;105064;1254;74258;-54
2024/01/15 09:27:58;;;;;;;3.50;2.30;;;;;;;0.12;100.00;98644.84;105305;1254;67033;-53
2024/01/15 09:30:25;;;;;;;3.30;2.70;;;;;;;0.15;100.00;98641.95;105370;1254;71471;-54
2024/01/15 09:32:53;;;;;;;4.10;2.00;;;;;;;0.18;100.00;98639.03;104972;1258;60425;-54
2024/01/15 09:35:20;;;;;;;2.90;1.90;;;;;;;0.20;100.00;98637.59;105101;1254;62331;-54
2024/01/15 09:37:51;;;;;;;4.60;2.80;;;;;;;0.23;100.00;98637.36;105659;1256;73917;-54
2024/01/15 09:40:18;;;;;;;3.60;1.70;;;;;;;0.26;100.00;98636.72;105350;1254;67242;-54
2024/01/15 09:42:45;;;;;;;4.00;2.30;;;;;;;0.30;100.00;98634.52;104901;1256;71694;-54
2024/01/15 09:45:13;;;;;;;5.90;2.90;;;;;;;0.34;100.00;98636.52;106148;1256;60566;-54
2024/01/15 09:47:42;;;;;;;3.90;2.20;;;;;;;0.38;100.00;98639.08;105052;1258;60608;-54
2024/01/15 09:50:13;;;;;;;5.80;2.90;;;;;;;0.42;100.00;98637.91;105164;1254;74612;-53
2024/01/15 09:52:41;;;;;;;6.50;3.70;;;;;;;0.45;100.00;98634.30;105202;1254;65852;-54
2024/01/15 09:55:08;;;;;;;3.10;2.40;;;;;;;0.46;100.00;98639.41;105211;1254;71460;-54
2024/01/15 09:57:36;;;;;;;2.80;2.20;;;;;;;0.47;100.00;98637.27;105016;1254;60448;-54
2024/01/15 10:00:05;;;;;;;3.80;1.60;;;;;;;0.48;100.00;98630.55;105457;1256;60363;-55
2024/01/15 10:02:34;;;;;;;4.70;2.80;;;;;;;0.47;100.00;98633.20;105983;1254;76045;-54
2024/01/15 10:05:01;;;;;;;3.20;2.00;;;;;;;0.48;100.00;98634.08;105053;1257;69011;-54
2024/01/15 10:07:29;;;;;;;2.60;2.10;;;;;;;0.49;100.00;98634.92;105004;1254;72739;-54
2024/01/15 10:09:57;;;;;;;5.10;3.10;;;;;;;0.49;100.00;98630.34;109075;1254;58522;-55
2024/01/15 10:12:24;;;;;;;7.30;4.50;;;;;;;0.47;100.00;98632.14;109149;1254;60564;-54
2024/01/15 10:14:51;;;;;;;5.90;3.60;;;;;;;0.47;100.00;98630.90;109020;1254;71664;-54
2024/01/15 10:17:19;;;;;;;5.30;3.40;;;;;;;0.48;100.00;98621.17;109087;1257;67244;-55
2024/01/15 10:19:47;;;;;;;8.30;5.60;;;;;;;0.50;100.00;98619.89;109020;1254;72198;-55
2024/01/15 10:22:17;;;;;;;3.70;2.30;;;;;;;0.53;100.00;98622.98;109145;1254;59512;-55
2024/01/15 10:24:46;;;;;;;3.60;2.30;;;;;;;0.55;100.00;98617.98;109190;1252;58806;-55
2024/01/15 10:27:15;;;;;;;3.40;2.20;;;;;;;0.56;100.00;98612.48;109018;1253;74339;-55
2024/01/15 10:29:43;;;;;;;4.60;2.20;;;;;;;0.55;100.00;98606.16;109076;1253;67465;-54
2024/01/15 10:32:11;;;;;;;2.90;2.00;;;;;;;0.55;100.00;98603.69;109075;1254;71778;-55
2024/01/15 10:34:42;;;;;;;2.50;1.80;;;;;;;0.56;100.00;98599.62;109041;1253;59477;-55
2024/01/15 10:37:10;;;;;;;4.90;3.00;;;;;;;0.56;100.00;98601.56;109188;1254;59092;-55
2024/01/15 10:39:39;;;;;;;4.00;2.50;;;;;;;0.56;100.00;98599.80;108454;1254;73915;-53
2024/01/15 10:42:06;;;;;;;5.30;2.50;;;;;;;0.55;100.00;98599.62;105034;1254;66726;-54
2024/01/15 10:44:35;;;;;;;2.80;2.50;;;;;;;0.55;100.00;98592.05;105028;1254;72789;-54
2024/01/15 10:47:03;;;;;;;3.80;2.50;;;;;;;0.54;100.00;98586.95;109115;1252;61311;-54
2024/01/15 10:49:30;;;;;;;3.90;2.30;;;;;;;0.53;100.00;98580.24;109233;1253;58438;-55
2024/01/15 10:52:01;;;;;;;5.30;3.60;;;;;;;0.53;100.00;98574.09;108796;1254;294829;-55
2024/01/15 10:55:37;;;;;;;4.60;3.50;;;;;;;0.55;100.00;98643.04;101731;1292;600756;-54
2024/01/15 10:58:07;;;;;;;4.30;2.30;;;;;;;0.55;100.00;98650.29;104011;1269;59447;-54
2024/01/15 11:00:37;;;;;;;4.90;2.90;;;;;;;0.55;100.00;98638.29;104066;1268;59726;-55
2024/01/15 11:03:06;;;;;;;3.40;2.70;;;;;;;0.54;100.00;98632.13;104110;1268;73253;-54
2024/01/15 11:05:38;;;;;;;6.60;3.50;;;;;;;0.52;100.00;98623.70;104001;1273;67427;-54
2024/01/15 11:08:06;;;;;;;2.50;2.00;;;;;;;0.51;100.00;98618.62;104423;1269;150504;-55
2024/01/15 11:10:41;;;;;;;2.40;2.10;;;;;;;0.50;100.00;98612.32;104318;1269;59357;-55
2024/01/15 11:13:29;;;;;;;3.30;2.30;;;;;;;0.47;100.00;98607.44;104581;1270;59169;-55
2024/01/15 11:16:01;;;;;;;5.50;2.30;;;;;;;0.44;100.00;98600.81;103979;1266;72232;-55
2024/01/15 11:18:30;;;;;;;5.60;2.70;;;;;;;0.40;100.00;98591.56;104446;1269;69218;-55
2024/01/15 11:21:07;;;;;;;5.70;3.50;;;;;;;0.35;100.00;98587.08;104854;1267;71552;-55
2024/01/15 11:23:57;;;;;;;4.20;2.70;;;;;;;0.32;100.00;98589.12;103896;1265;60895;-55